sensor_id;sensor_type;location;lat;lon;timestamp;temperature;humidity
22430;DHT22;11382;48.086;11.632;2023-04-03T00:01:11;2.30;99.90
22430;DHT22;11382;48.086;11.632;2023-04-03T00:03:39;2.20;99.90
22430;DHT22;11382;48.086;11.632;2023-04-03T00:06:08;2.20;99.90
22430;DHT22;11382;48.086;11.632;2023-04-03T00:08:38;2.30;99.90
22430;DHT22;11382;48.086;11.632;2023-04-03T00:11:07;2.20;99.90
22430;DHT22;11382;48.086;11.632;2023-04-03T00:13:37;2.20;99.90
22430;DHT22;11382;48.086;11.632;2023-04-03T00:16:06;2.20;99.90
22430;DHT22;11382;48.086;11.632;2023-04-03T00:18:37;2.20;99.90
22430;DHT22;11382;48.086;11.632;2023-04-03T00:21:06;2.30;99.90
22430;DHT22;11382;48.086;11.632;2023-04-03T00:23:35;2.30;99.90
22430;DHT22;11382;48.086;11.632;2023-04-03T00:26:03;2.20;99.90
22430;DHT22;11382;48.086;11.632;2023-04-03T00:28:31;2.20;99.90
22430;DHT22;11382;48.086;11.632;2023-04-03T00:30:59;2.20;99.90
22430;DHT22;11382;48.086;11.632;2023-04-03T00:33:27;2.20;99.90
22430;DHT22;11382;48.086;11.632;2023-04-03T00:35:57;2.30;99.90
22430;DHT22;11382;48.086;11.632;2023-04-03T00:38:25;2.20;99.90
22430;DHT22;11382;48.086;11.632;2023-04-03T00:40:53;2.20;99.90
22430;DHT22;11382;48.086;11.632;2023-04-03T00:43:22;2.20;99.90
22430;DHT22;11382;48.086;11.632;2023-04-03T00:45:51;2.20;99.90
22430;DHT22;11382;48.086;11.632;2023-04-03T00:48:22;2.10;99.90
22430;DHT22;11382;48.086;11.632;2023-04-03T00:50:52;2.10;99.90
22430;DHT22;11382;48.086;11.632;2023-04-03T00:53:25;2.00;99.90
22430;DHT22;11382;48.086;11.632;2023-04-03T00:55:55;2.00;99.90
22430;DHT22;11382;48.086;11.632;2023-04-03T00:58:28;2.10;99.90
22430;DHT22;11382;48.086;11.632;2023-04-03T01:00:58;2.10;99.90
22430;DHT22;11382;48.086;11.632;2023-04-03T01:03:28;2.00;99.90
22430;DHT22;11382;48.086;11.632;2023-04-03T01:06:00;2.00;99.90
22430;DHT22;11382;48.086;11.632;2023-04-03T01:08:30;2.00;99.90
22430;DHT22;11382;48.086;11.632;2023-04-03T01:10:58;2.00;99.90
22430;DHT22;11382;48.086;11.632;2023-04-03T01:13:30;1.90;99.90
22430;DHT22;11382;48.086;11.632;2023-04-03T01:16:00;2.00;99.90
22430;DHT22;11382;48.086;11.632;2023-04-03T01:18:29;2.10;99.90
22430;DHT22;11382;48.086;11.632;2023-04-03T01:21:29;2.10;99.90
22430;DHT22;11382;48.086;11.632;2023-04-03T01:24:21;2.10;99.90
22430;DHT22;11382;48.086;11.632;2023-04-03T01:26:51;2.20;99.90
22430;DHT22;11382;48.086;11.632;2023-04-03T01:29:21;2.20;99.90
22430;DHT22;11382;48.086;11.632;2023-04-03T01:31:54;2.20;99.90
22430;DHT22;11382;48.086;11.632;2023-04-03T01:34:24;2.20;99.90
22430;DHT22;11382;48.086;11.632;2023-04-03T01:36:53;2.20;99.90
22430;DHT22;11382;48.086;11.632;2023-04-03T01:39:21;2.30;99.90
22430;DHT22;11382;48.086;11.632;2023-04-03T01:41:51;2.20;99.90
22430;DHT22;11382;48.086;11.632;2023-04-03T01:44:25;2.20;99.90
22430;DHT22;11382;48.086;11.632;2023-04-03T01:46:55;2.00;99.90
22430;DHT22;11382;48.086;11.632;2023-04-03T01:49:25;2.10;99.90
22430;DHT22;11382;48.086;11.632;2023-04-03T01:51:53;2.10;99.90
22430;DHT22;11382;48.086;11.632;2023-04-03T01:54:21;2.10;99.90
22430;DHT22;11382;48.086;11.632;2023-04-03T01:56:51;2.20;99.90
22430;DHT22;11382;48.086;11.632;2023-04-03T01:59:20;2.20;99.90
22430;DHT22;11382;48.086;11.632;2023-04-03T02:01:48;2.20;99.90
22430;DHT22;11382;48.086;11.632;2023-04-03T02:04:18;2.20;99.90
22430;DHT22;11382;48.086;11.632;2023-04-03T02:06:46;2.30;99.90
22430;DHT22;11382;48.086;11.632;2023-04-03T02:09:14;2.40;99.90
22430;DHT22;11382;48.086;11.632;2023-04-03T02:11:42;2.30;99.90
22430;DHT22;11382;48.086;11.632;2023-04-03T02:14:10;2.30;99.90
22430;DHT22;11382;48.086;11.632;2023-04-03T02:16:38;2.30;99.90
22430;DHT22;11382;48.086;11.632;2023-04-03T02:19:06;2.30;99.90
22430;DHT22;11382;48.086;11.632;2023-04-03T02:21:35;2.40;99.90
22430;DHT22;11382;48.086;11.632;2023-04-03T02:24:04;2.30;99.90
22430;DHT22;11382;48.086;11.632;2023-04-03T02:26:33;2.30;99.90
22430;DHT22;11382;48.086;11.632;2023-04-03T02:29:02;2.40;99.90
22430;DHT22;11382;48.086;11.632;2023-04-03T02:31:30;2.40;99.90
22430;DHT22;11382;48.086;11.632;2023-04-03T02:34:00;2.40;99.90
22430;DHT22;11382;48.086;11.632;2023-04-03T02:36:28;2.50;99.90
22430;DHT22;11382;48.086;11.632;2023-04-03T02:39:03;2.50;99.90
22430;DHT22;11382;48.086;11.632;2023-04-03T02:41:31;2.60;99.90
22430;DHT22;11382;48.086;11.632;2023-04-03T02:44:06;2.50;99.90
22430;DHT22;11382;48.086;11.632;2023-04-03T02:46:34;2.30;99.90
22430;DHT22;11382;48.086;11.632;2023-04-03T02:49:03;2.30;99.90
22430;DHT22;11382;48.086;11.632;2023-04-03T02:51:32;2.40;99.90
22430;DHT22;11382;48.086;11.632;2023-04-03T02:54:00;2.50;99.90
22430;DHT22;11382;48.086;11.632;2023-04-03T02:56:35;2.50;99.90
22430;DHT22;11382;48.086;11.632;2023-04-03T02:59:03;2.50;99.90
22430;DHT22;11382;48.086;11.632;2023-04-03T03:01:33;2.50;99.90
22430;DHT22;11382;48.086;11.632;2023-04-03T03:04:02;2.40;99.90
22430;DHT22;11382;48.086;11.632;2023-04-03T03:06:31;2.50;99.90
22430;DHT22;11382;48.086;11.632;2023-04-03T03:08:59;2.40;99.90
22430;DHT22;11382;48.086;11.632;2023-04-03T03:11:28;2.40;99.90
22430;DHT22;11382;48.086;11.632;2023-04-03T03:13:58;2.40;99.90
22430;DHT22;11382;48.086;11.632;2023-04-03T03:16:26;2.30;99.90
22430;DHT22;11382;48.086;11.632;2023-04-03T03:18:55;2.30;99.90
22430;DHT22;11382;48.086;11.632;2023-04-03T03:21:25;2.40;99.90
22430;DHT22;11382;48.086;11.632;2023-04-03T03:23:53;2.30;99.90
22430;DHT22;11382;48.086;11.632;2023-04-03T03:26:21;2.40;99.90
22430;DHT22;11382;48.086;11.632;2023-04-03T03:28:50;2.50;99.90
22430;DHT22;11382;48.086;11.632;2023-04-03T03:31:20;2.50;99.90
22430;DHT22;11382;48.086;11.632;2023-04-03T03:33:48;2.40;99.90
22430;DHT22;11382;48.086;11.632;2023-04-03T03:36:16;2.40;99.90
22430;DHT22;11382;48.086;11.632;2023-04-03T03:38:44;2.40;99.90
22430;DHT22;11382;48.086;11.632;2023-04-03T03:41:12;2.40;99.90
22430;DHT22;11382;48.086;11.632;2023-04-03T03:43:43;2.40;99.90
22430;DHT22;11382;48.086;11.632;2023-04-03T03:46:13;2.40;99.90
22430;DHT22;11382;48.086;11.632;2023-04-03T03:48:42;2.40;99.90
22430;DHT22;11382;48.086;11.632;2023-04-03T03:51:10;2.40;99.90
22430;DHT22;11382;48.086;11.632;2023-04-03T03:53:39;2.40;99.90
22430;DHT22;11382;48.086;11.632;2023-04-03T03:56:12;2.40;99.90
22430;DHT22;11382;48.086;11.632;2023-04-03T03:58:41;2.40;99.90
22430;DHT22;11382;48.086;11.632;2023-04-03T04:01:09;2.30;99.90
22430;DHT22;11382;48.086;11.632;2023-04-03T04:03:46;2.30;99.90
22430;DHT22;11382;48.086;11.632;2023-04-03T04:06:19;2.40;99.90
22430;DHT22;11382;48.086;11.632;2023-04-03T04:08:47;2.40;99.90
22430;DHT22;11382;48.086;11.632;2023-04-03T04:11:16;2.40;99.90
22430;DHT22;11382;48.086;11.632;2023-04-03T04:13:46;2.50;99.90
22430;DHT22;11382;48.086;11.632;2023-04-03T04:16:16;2.40;99.90
22430;DHT22;11382;48.086;11.632;2023-04-03T04:18:45;2.50;99.90
22430;DHT22;11382;48.086;11.632;2023-04-03T04:21:13;2.50;99.90
22430;DHT22;11382;48.086;11.632;2023-04-03T04:23:43;2.50;99.90
22430;DHT22;11382;48.086;11.632;2023-04-03T04:26:12;2.50;99.90
22430;DHT22;11382;48.086;11.632;2023-04-03T04:28:42;2.50;99.90
22430;DHT22;11382;48.086;11.632;2023-04-03T04:31:10;2.30;99.90
22430;DHT22;11382;48.086;11.632;2023-04-03T04:33:38;2.50;99.90
22430;DHT22;11382;48.086;11.632;2023-04-03T04:36:11;2.50;99.90
22430;DHT22;11382;48.086;11.632;2023-04-03T04:38:41;2.40;99.90
22430;DHT22;11382;48.086;11.632;2023-04-03T04:41:09;2.40;99.90
22430;DHT22;11382;48.086;11.632;2023-04-03T04:43:38;2.40;99.90
22430;DHT22;11382;48.086;11.632;2023-04-03T04:46:07;2.40;99.90
22430;DHT22;11382;48.086;11.632;2023-04-03T04:48:41;2.50;99.90
22430;DHT22;11382;48.086;11.632;2023-04-03T04:51:12;2.50;99.90
22430;DHT22;11382;48.086;11.632;2023-04-03T04:53:40;2.50;99.90
22430;DHT22;11382;48.086;11.632;2023-04-03T04:56:12;2.40;99.90
22430;DHT22;11382;48.086;11.632;2023-04-03T04:58:41;2.50;99.90
22430;DHT22;11382;48.086;11.632;2023-04-03T05:01:10;2.40;99.90
22430;DHT22;11382;48.086;11.632;2023-04-03T05:03:57;2.40;99.90
22430;DHT22;11382;48.086;11.632;2023-04-03T05:06:27;2.40;99.90
22430;DHT22;11382;48.086;11.632;2023-04-03T05:08:57;2.40;99.90
22430;DHT22;11382;48.086;11.632;2023-04-03T05:11:25;2.30;99.90
22430;DHT22;11382;48.086;11.632;2023-04-03T05:13:54;2.30;99.90
22430;DHT22;11382;48.086;11.632;2023-04-03T05:16:23;2.40;99.90
22430;DHT22;11382;48.086;11.632;2023-04-03T05:18:52;2.40;99.90
22430;DHT22;11382;48.086;11.632;2023-04-03T05:21:22;2.30;99.90
22430;DHT22;11382;48.086;11.632;2023-04-03T05:23:54;2.30;99.90
22430;DHT22;11382;48.086;11.632;2023-04-03T05:26:22;2.20;99.90
22430;DHT22;11382;48.086;11.632;2023-04-03T05:28:51;2.30;99.90
22430;DHT22;11382;48.086;11.632;2023-04-03T05:31:20;2.30;99.90
22430;DHT22;11382;48.086;11.632;2023-04-03T05:33:49;2.20;99.90
22430;DHT22;11382;48.086;11.632;2023-04-03T05:36:18;2.30;99.90
22430;DHT22;11382;48.086;11.632;2023-04-03T05:38:51;2.30;99.90
22430;DHT22;11382;48.086;11.632;2023-04-03T05:41:24;2.50;99.90
22430;DHT22;11382;48.086;11.632;2023-04-03T05:43:52;2.40;99.90
22430;DHT22;11382;48.086;11.632;2023-04-03T05:46:22;2.40;99.90
22430;DHT22;11382;48.086;11.632;2023-04-03T05:48:54;2.40;99.90
22430;DHT22;11382;48.086;11.632;2023-04-03T05:51:28;2.50;99.90
22430;DHT22;11382;48.086;11.632;2023-04-03T05:54:06;2.50;99.90
22430;DHT22;11382;48.086;11.632;2023-04-03T05:56:38;2.60;99.90
22430;DHT22;11382;48.086;11.632;2023-04-03T05:59:06;2.70;99.90
22430;DHT22;11382;48.086;11.632;2023-04-03T06:01:37;2.70;99.90
22430;DHT22;11382;48.086;11.632;2023-04-03T06:04:05;2.80;99.90
22430;DHT22;11382;48.086;11.632;2023-04-03T06:06:46;2.80;99.90
22430;DHT22;11382;48.086;11.632;2023-04-03T06:09:15;2.80;99.90
22430;DHT22;11382;48.086;11.632;2023-04-03T06:11:45;2.90;99.90
22430;DHT22;11382;48.086;11.632;2023-04-03T06:14:14;2.90;99.90
22430;DHT22;11382;48.086;11.632;2023-04-03T06:16:42;3.00;99.90
22430;DHT22;11382;48.086;11.632;2023-04-03T06:19:11;2.70;99.90
22430;DHT22;11382;48.086;11.632;2023-04-03T06:21:45;2.70;99.90
22430;DHT22;11382;48.086;11.632;2023-04-03T06:24:15;2.80;99.90
22430;DHT22;11382;48.086;11.632;2023-04-03T06:26:44;2.80;99.90
22430;DHT22;11382;48.086;11.632;2023-04-03T06:29:12;2.60;99.90
22430;DHT22;11382;48.086;11.632;2023-04-03T06:31:42;2.70;99.90
22430;DHT22;11382;48.086;11.632;2023-04-03T06:34:10;2.90;99.90
22430;DHT22;11382;48.086;11.632;2023-04-03T06:36:39;3.10;99.90
22430;DHT22;11382;48.086;11.632;2023-04-03T06:39:08;3.30;99.90
22430;DHT22;11382;48.086;11.632;2023-04-03T06:41:37;3.40;99.90
22430;DHT22;11382;48.086;11.632;2023-04-03T06:44:06;3.20;99.90
22430;DHT22;11382;48.086;11.632;2023-04-03T06:46:38;3.40;99.90
22430;DHT22;11382;48.086;11.632;2023-04-03T06:49:06;3.40;99.90
22430;DHT22;11382;48.086;11.632;2023-04-03T06:51:36;3.30;99.90
22430;DHT22;11382;48.086;11.632;2023-04-03T06:54:05;3.60;99.90
22430;DHT22;11382;48.086;11.632;2023-04-03T06:56:33;3.40;99.90
22430;DHT22;11382;48.086;11.632;2023-04-03T06:59:01;3.10;99.90
22430;DHT22;11382;48.086;11.632;2023-04-03T07:01:31;3.20;99.90
22430;DHT22;11382;48.086;11.632;2023-04-03T07:03:59;3.40;99.90
22430;DHT22;11382;48.086;11.632;2023-04-03T07:06:27;3.50;99.90
22430;DHT22;11382;48.086;11.632;2023-04-03T07:08:55;3.70;99.90
22430;DHT22;11382;48.086;11.632;2023-04-03T07:11:24;3.70;99.90
22430;DHT22;11382;48.086;11.632;2023-04-03T07:13:52;3.80;99.90
22430;DHT22;11382;48.086;11.632;2023-04-03T07:16:22;3.90;99.90
22430;DHT22;11382;48.086;11.632;2023-04-03T07:18:51;3.70;99.90
22430;DHT22;11382;48.086;11.632;2023-04-03T07:21:19;3.80;99.90
22430;DHT22;11382;48.086;11.632;2023-04-03T07:23:47;3.80;99.90
22430;DHT22;11382;48.086;11.632;2023-04-03T07:26:15;4.00;99.90
22430;DHT22;11382;48.086;11.632;2023-04-03T07:28:43;4.30;99.90
22430;DHT22;11382;48.086;11.632;2023-04-03T07:31:14;4.40;99.90
22430;DHT22;11382;48.086;11.632;2023-04-03T07:33:44;4.40;99.90
22430;DHT22;11382;48.086;11.632;2023-04-03T07:36:16;4.30;99.90
22430;DHT22;11382;48.086;11.632;2023-04-03T07:38:45;4.40;99.90
22430;DHT22;11382;48.086;11.632;2023-04-03T07:41:15;4.30;99.90
22430;DHT22;11382;48.086;11.632;2023-04-03T07:43:44;4.00;99.90
22430;DHT22;11382;48.086;11.632;2023-04-03T07:46:13;4.00;99.90
22430;DHT22;11382;48.086;11.632;2023-04-03T07:48:41;4.30;99.90
22430;DHT22;11382;48.086;11.632;2023-04-03T07:51:09;4.20;99.90
22430;DHT22;11382;48.086;11.632;2023-04-03T07:53:38;4.10;99.90
22430;DHT22;11382;48.086;11.632;2023-04-03T07:56:07;4.20;99.90
22430;DHT22;11382;48.086;11.632;2023-04-03T07:58:36;4.10;99.90
22430;DHT22;11382;48.086;11.632;2023-04-03T08:01:05;4.20;99.90
22430;DHT22;11382;48.086;11.632;2023-04-03T08:03:34;4.00;99.90
22430;DHT22;11382;48.086;11.632;2023-04-03T08:06:04;4.00;99.90
22430;DHT22;11382;48.086;11.632;2023-04-03T08:08:42;3.90;99.90
22430;DHT22;11382;48.086;11.632;2023-04-03T08:11:11;3.80;99.90
22430;DHT22;11382;48.086;11.632;2023-04-03T08:13:39;3.80;99.90
22430;DHT22;11382;48.086;11.632;2023-04-03T08:16:10;3.90;99.90
22430;DHT22;11382;48.086;11.632;2023-04-03T08:18:39;4.00;99.90
22430;DHT22;11382;48.086;11.632;2023-04-03T08:21:08;3.90;99.90
22430;DHT22;11382;48.086;11.632;2023-04-03T08:23:38;4.10;99.90
22430;DHT22;11382;48.086;11.632;2023-04-03T08:26:11;4.20;99.90
22430;DHT22;11382;48.086;11.632;2023-04-03T08:28:39;4.30;99.90
22430;DHT22;11382;48.086;11.632;2023-04-03T08:31:10;4.50;99.90
22430;DHT22;11382;48.086;11.632;2023-04-03T08:33:39;4.50;99.90
22430;DHT22;11382;48.086;11.632;2023-04-03T08:36:15;4.60;99.90
22430;DHT22;11382;48.086;11.632;2023-04-03T08:38:44;4.50;99.90
22430;DHT22;11382;48.086;11.632;2023-04-03T08:41:16;4.20;99.90
22430;DHT22;11382;48.086;11.632;2023-04-03T08:44:02;4.00;99.90
22430;DHT22;11382;48.086;11.632;2023-04-03T08:46:40;4.20;99.90
22430;DHT22;11382;48.086;11.632;2023-04-03T08:49:13;4.10;99.90
22430;DHT22;11382;48.086;11.632;2023-04-03T08:51:46;4.20;99.90
22430;DHT22;11382;48.086;11.632;2023-04-03T08:54:24;4.70;99.90
22430;DHT22;11382;48.086;11.632;2023-04-03T08:56:55;4.60;99.90
22430;DHT22;11382;48.086;11.632;2023-04-03T08:59:28;4.70;99.90
22430;DHT22;11382;48.086;11.632;2023-04-03T09:01:58;5.00;99.90
22430;DHT22;11382;48.086;11.632;2023-04-03T09:04:31;5.40;99.90
22430;DHT22;11382;48.086;11.632;2023-04-03T09:07:04;5.60;99.90
22430;DHT22;11382;48.086;11.632;2023-04-03T09:09:36;5.60;99.90
22430;DHT22;11382;48.086;11.632;2023-04-03T09:12:16;5.50;99.90
22430;DHT22;11382;48.086;11.632;2023-04-03T09:14:55;5.80;99.90
22430;DHT22;11382;48.086;11.632;2023-04-03T09:17:37;5.70;99.90
22430;DHT22;11382;48.086;11.632;2023-04-03T09:20:17;6.50;99.90
22430;DHT22;11382;48.086;11.632;2023-04-03T09:22:47;6.50;99.90
22430;DHT22;11382;48.086;11.632;2023-04-03T09:25:21;6.50;99.90
22430;DHT22;11382;48.086;11.632;2023-04-03T09:27:51;6.30;99.90
22430;DHT22;11382;48.086;11.632;2023-04-03T09:30:21;6.00;99.90
22430;DHT22;11382;48.086;11.632;2023-04-03T09:32:51;6.20;99.90
22430;DHT22;11382;48.086;11.632;2023-04-03T09:35:23;6.50;99.90
22430;DHT22;11382;48.086;11.632;2023-04-03T09:38:16;6.60;99.90
22430;DHT22;11382;48.086;11.632;2023-04-03T09:40:45;6.20;99.90
22430;DHT22;11382;48.086;11.632;2023-04-03T09:43:26;6.20;99.90
22430;DHT22;11382;48.086;11.632;2023-04-03T09:45:56;6.00;99.90
22430;DHT22;11382;48.086;11.632;2023-04-03T09:48:26;6.10;99.90
22430;DHT22;11382;48.086;11.632;2023-04-03T09:50:59;5.60;99.90
22430;DHT22;11382;48.086;11.632;2023-04-03T09:53:34;5.70;99.90
22430;DHT22;11382;48.086;11.632;2023-04-03T09:56:05;5.40;99.90
22430;DHT22;11382;48.086;11.632;2023-04-03T09:58:49;5.00;99.90
22430;DHT22;11382;48.086;11.632;2023-04-03T10:01:23;4.70;99.90
22430;DHT22;11382;48.086;11.632;2023-04-03T10:04:05;4.60;99.90
22430;DHT22;11382;48.086;11.632;2023-04-03T10:06:35;4.80;99.90
22430;DHT22;11382;48.086;11.632;2023-04-03T10:09:06;4.60;99.90
22430;DHT22;11382;48.086;11.632;2023-04-03T10:11:34;4.50;99.90
22430;DHT22;11382;48.086;11.632;2023-04-03T10:14:03;4.80;99.90
22430;DHT22;11382;48.086;11.632;2023-04-03T10:16:37;5.00;99.90
22430;DHT22;11382;48.086;11.632;2023-04-03T10:19:36;5.30;99.90
22430;DHT22;11382;48.086;11.632;2023-04-03T10:22:16;5.50;99.90
22430;DHT22;11382;48.086;11.632;2023-04-03T10:24:52;5.50;99.90
22430;DHT22;11382;48.086;11.632;2023-04-03T10:27:42;6.00;99.90
22430;DHT22;11382;48.086;11.632;2023-04-03T10:30:32;6.00;99.90
22430;DHT22;11382;48.086;11.632;2023-04-03T10:33:17;6.30;99.90
22430;DHT22;11382;48.086;11.632;2023-04-03T10:35:57;6.20;99.90
22430;DHT22;11382;48.086;11.632;2023-04-03T10:38:35;6.20;99.90
22430;DHT22;11382;48.086;11.632;2023-04-03T10:41:12;5.80;99.90
22430;DHT22;11382;48.086;11.632;2023-04-03T10:43:50;6.10;99.90
22430;DHT22;11382;48.086;11.632;2023-04-03T10:46:28;6.30;99.90
22430;DHT22;11382;48.086;11.632;2023-04-03T10:49:10;6.40;99.90
22430;DHT22;11382;48.086;11.632;2023-04-03T10:51:43;5.60;99.90
22430;DHT22;11382;48.086;11.632;2023-04-03T10:54:17;4.90;99.90
22430;DHT22;11382;48.086;11.632;2023-04-03T10:56:48;4.70;99.90
22430;DHT22;11382;48.086;11.632;2023-04-03T10:59:40;4.70;99.90
22430;DHT22;11382;48.086;11.632;2023-04-03T11:02:17;4.60;99.90
22430;DHT22;11382;48.086;11.632;2023-04-03T11:04:52;4.70;99.90
22430;DHT22;11382;48.086;11.632;2023-04-03T11:07:22;4.50;99.90
22430;DHT22;11382;48.086;11.632;2023-04-03T11:09:55;4.30;99.90
22430;DHT22;11382;48.086;11.632;2023-04-03T11:12:28;4.30;99.90
22430;DHT22;11382;48.086;11.632;2023-04-03T11:15:02;4.30;99.90
22430;DHT22;11382;48.086;11.632;2023-04-03T11:17:35;4.30;99.90
22430;DHT22;11382;48.086;11.632;2023-04-03T11:20:14;4.20;99.90
22430;DHT22;11382;48.086;11.632;2023-04-03T11:22:48;4.20;99.90
22430;DHT22;11382;48.086;11.632;2023-04-03T11:25:20;4.30;99.90
22430;DHT22;11382;48.086;11.632;2023-04-03T11:27:54;4.30;99.90
22430;DHT22;11382;48.086;11.632;2023-04-03T11:30:23;4.20;99.90
22430;DHT22;11382;48.086;11.632;2023-04-03T11:33:05;4.10;99.90
22430;DHT22;11382;48.086;11.632;2023-04-03T11:35:42;4.40;99.90
22430;DHT22;11382;48.086;11.632;2023-04-03T11:38:18;4.50;99.90
22430;DHT22;11382;48.086;11.632;2023-04-03T11:40:49;4.40;99.90
22430;DHT22;11382;48.086;11.632;2023-04-03T11:43:22;4.20;99.90
22430;DHT22;11382;48.086;11.632;2023-04-03T11:45:57;4.00;99.90
22430;DHT22;11382;48.086;11.632;2023-04-03T11:48:50;4.00;99.90
22430;DHT22;11382;48.086;11.632;2023-04-03T11:51:50;4.00;99.90
22430;DHT22;11382;48.086;11.632;2023-04-03T11:54:51;4.20;99.90
22430;DHT22;11382;48.086;11.632;2023-04-03T11:57:31;4.20;99.90
22430;DHT22;11382;48.086;11.632;2023-04-03T12:09:26;4.20;99.90
22430;DHT22;11382;48.086;11.632;2023-04-03T12:11:56;4.50;99.90
22430;DHT22;11382;48.086;11.632;2023-04-03T12:14:25;4.90;99.90
22430;DHT22;11382;48.086;11.632;2023-04-03T12:16:54;4.80;99.90
22430;DHT22;11382;48.086;11.632;2023-04-03T12:19:31;4.70;99.90
22430;DHT22;11382;48.086;11.632;2023-04-03T12:22:14;4.60;99.90
22430;DHT22;11382;48.086;11.632;2023-04-03T12:24:45;4.30;99.90
22430;DHT22;11382;48.086;11.632;2023-04-03T12:27:27;4.50;99.90
22430;DHT22;11382;48.086;11.632;2023-04-03T12:30:04;4.80;99.90
22430;DHT22;11382;48.086;11.632;2023-04-03T12:32:46;5.20;99.90
22430;DHT22;11382;48.086;11.632;2023-04-03T12:35:28;5.50;99.90
22430;DHT22;11382;48.086;11.632;2023-04-03T12:41:17;5.20;99.90
22430;DHT22;11382;48.086;11.632;2023-04-03T12:44:01;5.40;99.90
22430;DHT22;11382;48.086;11.632;2023-04-03T12:46:37;5.90;99.90
22430;DHT22;11382;48.086;11.632;2023-04-03T12:49:20;5.90;99.90
22430;DHT22;11382;48.086;11.632;2023-04-03T12:51:50;6.00;99.90
22430;DHT22;11382;48.086;11.632;2023-04-03T12:54:21;6.20;99.90
22430;DHT22;11382;48.086;11.632;2023-04-03T12:56:52;6.10;99.90
22430;DHT22;11382;48.086;11.632;2023-04-03T12:59:36;6.40;99.90
22430;DHT22;11382;48.086;11.632;2023-04-03T13:02:23;6.20;99.90
22430;DHT22;11382;48.086;11.632;2023-04-03T13:04:54;6.40;99.90
22430;DHT22;11382;48.086;11.632;2023-04-03T13:07:27;7.00;99.90
22430;DHT22;11382;48.086;11.632;2023-04-03T13:09:59;7.30;99.90
22430;DHT22;11382;48.086;11.632;2023-04-03T13:12:29;7.50;99.90
22430;DHT22;11382;48.086;11.632;2023-04-03T13:15:01;7.30;99.90
22430;DHT22;11382;48.086;11.632;2023-04-03T13:17:31;6.90;99.90
22430;DHT22;11382;48.086;11.632;2023-04-03T13:20:11;6.70;99.90
22430;DHT22;11382;48.086;11.632;2023-04-03T13:22:43;6.80;99.90
22430;DHT22;11382;48.086;11.632;2023-04-03T13:25:16;6.40;99.90
22430;DHT22;11382;48.086;11.632;2023-04-03T13:27:47;6.80;99.90
22430;DHT22;11382;48.086;11.632;2023-04-03T13:30:24;6.60;99.90
22430;DHT22;11382;48.086;11.632;2023-04-03T13:32:54;6.30;99.90
22430;DHT22;11382;48.086;11.632;2023-04-03T13:35:33;6.90;99.90
22430;DHT22;11382;48.086;11.632;2023-04-03T13:38:04;7.20;99.90
22430;DHT22;11382;48.086;11.632;2023-04-03T13:40:33;7.00;99.90
22430;DHT22;11382;48.086;11.632;2023-04-03T13:43:20;7.20;99.90
22430;DHT22;11382;48.086;11.632;2023-04-03T13:45:58;7.60;99.90
22430;DHT22;11382;48.086;11.632;2023-04-03T13:48:26;7.60;99.90
22430;DHT22;11382;48.086;11.632;2023-04-03T13:51:02;8.30;99.90
22430;DHT22;11382;48.086;11.632;2023-04-03T13:53:32;7.70;99.90
22430;DHT22;11382;48.086;11.632;2023-04-03T13:56:07;6.70;99.90
22430;DHT22;11382;48.086;11.632;2023-04-03T13:58:37;6.60;99.90
22430;DHT22;11382;48.086;11.632;2023-04-03T14:01:14;6.40;99.90
22430;DHT22;11382;48.086;11.632;2023-04-03T14:03:51;6.00;99.90
22430;DHT22;11382;48.086;11.632;2023-04-03T14:06:19;5.80;99.90
22430;DHT22;11382;48.086;11.632;2023-04-03T14:08:49;5.80;99.90
22430;DHT22;11382;48.086;11.632;2023-04-03T14:11:19;5.60;99.90
22430;DHT22;11382;48.086;11.632;2023-04-03T14:13:51;5.40;99.90
22430;DHT22;11382;48.086;11.632;2023-04-03T14:16:22;5.20;99.90
22430;DHT22;11382;48.086;11.632;2023-04-03T14:18:53;5.30;99.90
22430;DHT22;11382;48.086;11.632;2023-04-03T14:21:22;5.50;99.90
22430;DHT22;11382;48.086;11.632;2023-04-03T14:23:50;5.60;99.90
22430;DHT22;11382;48.086;11.632;2023-04-03T14:26:20;5.70;99.90
22430;DHT22;11382;48.086;11.632;2023-04-03T14:28:52;5.80;99.90
22430;DHT22;11382;48.086;11.632;2023-04-03T14:31:21;5.90;99.90
22430;DHT22;11382;48.086;11.632;2023-04-03T14:33:50;6.10;99.90
22430;DHT22;11382;48.086;11.632;2023-04-03T14:36:20;6.20;99.90
22430;DHT22;11382;48.086;11.632;2023-04-03T14:38:50;6.40;99.90
22430;DHT22;11382;48.086;11.632;2023-04-03T14:41:19;6.50;99.90
22430;DHT22;11382;48.086;11.632;2023-04-03T14:43:48;6.60;99.80
22430;DHT22;11382;48.086;11.632;2023-04-03T14:46:22;6.40;99.00
22430;DHT22;11382;48.086;11.632;2023-04-03T14:48:58;6.60;99.00
22430;DHT22;11382;48.086;11.632;2023-04-03T14:51:26;6.30;98.80
22430;DHT22;11382;48.086;11.632;2023-04-03T14:53:54;6.40;99.90
22430;DHT22;11382;48.086;11.632;2023-04-03T14:56:25;6.30;98.70
22430;DHT22;11382;48.086;11.632;2023-04-03T15:02:43;6.40;98.10
22430;DHT22;11382;48.086;11.632;2023-04-03T15:05:13;6.40;98.80
22430;DHT22;11382;48.086;11.632;2023-04-03T15:07:43;6.20;97.50
22430;DHT22;11382;48.086;11.632;2023-04-03T15:10:17;6.50;98.70
22430;DHT22;11382;48.086;11.632;2023-04-03T15:12:46;6.60;97.50
22430;DHT22;11382;48.086;11.632;2023-04-03T15:15:15;6.70;97.30
22430;DHT22;11382;48.086;11.632;2023-04-03T15:17:46;6.90;96.30
22430;DHT22;11382;48.086;11.632;2023-04-03T15:20:17;6.80;95.40
22430;DHT22;11382;48.086;11.632;2023-04-03T15:22:46;6.60;96.60
22430;DHT22;11382;48.086;11.632;2023-04-03T15:25:14;6.70;96.70
22430;DHT22;11382;48.086;11.632;2023-04-03T15:27:42;6.80;96.80
22430;DHT22;11382;48.086;11.632;2023-04-03T15:30:15;6.70;96.00
22430;DHT22;11382;48.086;11.632;2023-04-03T15:32:44;6.60;95.90
22430;DHT22;11382;48.086;11.632;2023-04-03T15:35:13;6.10;96.10
22430;DHT22;11382;48.086;11.632;2023-04-03T15:37:41;6.10;95.90
22430;DHT22;11382;48.086;11.632;2023-04-03T15:40:10;5.90;95.90
22430;DHT22;11382;48.086;11.632;2023-04-03T15:42:38;5.80;96.00
22430;DHT22;11382;48.086;11.632;2023-04-03T15:45:08;5.60;95.30
22430;DHT22;11382;48.086;11.632;2023-04-03T15:47:36;5.60;96.30
22430;DHT22;11382;48.086;11.632;2023-04-03T15:50:07;5.60;96.20
22430;DHT22;11382;48.086;11.632;2023-04-03T15:52:36;5.50;95.60
22430;DHT22;11382;48.086;11.632;2023-04-03T15:55:05;5.50;95.70
22430;DHT22;11382;48.086;11.632;2023-04-03T15:57:33;5.30;96.10
22430;DHT22;11382;48.086;11.632;2023-04-03T16:00:07;5.50;96.40
22430;DHT22;11382;48.086;11.632;2023-04-03T16:02:36;5.50;96.20
22430;DHT22;11382;48.086;11.632;2023-04-03T16:05:06;5.50;96.10
22430;DHT22;11382;48.086;11.632;2023-04-03T16:07:35;5.40;95.00
22430;DHT22;11382;48.086;11.632;2023-04-03T16:10:05;5.60;95.30
22430;DHT22;11382;48.086;11.632;2023-04-03T16:12:33;5.50;94.50
22430;DHT22;11382;48.086;11.632;2023-04-03T16:15:03;5.70;94.90